Gunnison, CO

05:55 PM MDT am 30. September 2014 (GMT -0600)
West Ruby Ave Weather | Change Station
CLOSE
Current Station
Persönliche Wetterstationen
Location: Gunnison, CO
Höhe: 7713 ft
Wetterstationen in der Umgebung
aktive Warnung: Freeze Watch aktiver Hinweis: Public Information Statement

Höhe 7713 ft 38.55 °N, 106.93 °W | Updated 12 seconds ago

Mostly Cloudy
Wolkig
47.6 °F
gefühlte 48 °F
N
0.0
Wind Wechselnd Wind aus West
Gusts 2.0 mph

Heute
Max. -- | schwach -- °F
--% Regenrisiko
Gestern
Max. -- | schwach -- °F
Precip. -- inch
7:02 AM 6:52 PM
Erstes Viertel, 41% visible
Druck 30.04 inch
Sichtweite 10.0 Meilen
Wolken Few 2700 ft
Teils Wolkig 3300 ft
Wolkig 5500 ft
Windchill 48 °F
Taupunkt 32 °F
Feuchtigkeit 55%
Regen 0.00 inch
Schneehöhe 0 in , 0 in , 0 in
UV 0.0 von 12
Pollen 4.10 von 12
Luftqualität Nicht verfügbar..
Flu Activity Nicht verfügbar..
METAR KGUC 302335Z AUTO 30004KT 10SM FEW027 SCT033 BKN055 08/02 A3004 RMK AO1

More Conditions Fewer Conditions

Druck 30.04 inch
Sichtweite 10.0 Meilen
Wolken Few 2700 ft
Teils Wolkig 3300 ft
Wolkig 5500 ft
Windchill 48 °F
Taupunkt 32 °F
Feuchtigkeit 55%
Regen 0.00 inch
Schneehöhe 0 in , 0 in , 0 in
UV 0.0 von 12
Pollen 4.10 von 12
Luftqualität Nicht verfügbar..
Flu Activity Nicht verfügbar..
METAR KGUC 302335Z AUTO 30004KT 10SM FEW027 SCT033 BKN055 08/02 A3004 RMK AO1

More Conditions Fewer Conditions

10-Day Weather Forecast

Almanac

Astronomie

Sep. 30, 2014 Aufgang Untergang
Genaue Zeit 07:02 MDT 18:52 MDT
Bürgerliche Dämmerung 06:36 MDT 19:18 MDT
Nautische Dämmerung 06:05 MDT 19:49 MDT
Astronomische Dämmerung 05:34 MDT 20:20 MDT
Mond 13:10 MDT 23:28 MDT
Länge des sichtbaren Lichts 12h 42m
Tageslänge
11h 49m
Tomorrow will be 2m 29s shorter.
Erstes Viertel, 41% of the Moon is Illuminated
Heute
Erstes Viertel
Okt 1
Erstes Viertel
Okt 8
Vollmond
Okt 15
Letztes Viertel
Okt 23
Neu

Heutige Rekorde

State Highs State Lows

Community

WunderPhotos

Upload Photos

1,757,785 Fotos hochgeladen!

Nearby

Schneehöhe

Station Depth Höhe
Buckskin Joe 0 in 11150 ft
Ute Creek 0 in 10650 ft
Grayback 0 in 11620 ft
Scotch Creek 0 in 9100 ft
Beaver Divide 0 in 8280 ft

Erdbebenaktivität

Stadt Distance Mag. Time & Date
No recent earthquake activity has been reported nearby.
Minimum magnitude displayed is 2.5.

küstennahe Wassertemperaturen

Ort Temperatur
Kein Stationsbericht

Wetterstationen in der Umgebung